sensor_id;sensor_type;location;lat;lon;timestamp;P1;durP1;ratioP1;P2;durP2;ratioP2
59504;SDS011;45321;53.200;5.814;2023-03-14T00:00:56;24.38;;;4.38;;
59504;SDS011;45321;53.200;5.814;2023-03-14T00:03:22;25.52;;;4.18;;
59504;SDS011;45321;53.200;5.814;2023-03-14T00:05:47;27.23;;;4.85;;
59504;SDS011;45321;53.200;5.814;2023-03-14T00:08:13;23.98;;;5.68;;
59504;SDS011;45321;53.200;5.814;2023-03-14T00:10:39;26.83;;;4.50;;
59504;SDS011;45321;53.200;5.814;2023-03-14T00:13:05;22.20;;;4.70;;
59504;SDS011;45321;53.200;5.814;2023-03-14T00:15:34;24.65;;;5.18;;
59504;SDS011;45321;53.200;5.814;2023-03-14T00:18:00;20.85;;;3.97;;
59504;SDS011;45321;53.200;5.814;2023-03-14T00:20:26;20.08;;;4.32;;
59504;SDS011;45321;53.200;5.814;2023-03-14T00:22:51;24.23;;;3.97;;
59504;SDS011;45321;53.200;5.814;2023-03-14T00:25:17;19.77;;;4.00;;
59504;SDS011;45321;53.200;5.814;2023-03-14T00:27:43;19.83;;;3.55;;
59504;SDS011;45321;53.200;5.814;2023-03-14T00:30:09;20.60;;;3.42;;
59504;SDS011;45321;53.200;5.814;2023-03-14T00:32:36;22.73;;;4.57;;
59504;SDS011;45321;53.200;5.814;2023-03-14T00:35:02;18.85;;;3.40;;
59504;SDS011;45321;53.200;5.814;2023-03-14T00:37:28;20.27;;;4.45;;
59504;SDS011;45321;53.200;5.814;2023-03-14T00:39:54;21.05;;;4.25;;
59504;SDS011;45321;53.200;5.814;2023-03-14T00:42:20;19.60;;;3.58;;
59504;SDS011;45321;53.200;5.814;2023-03-14T00:44:46;19.00;;;4.43;;
59504;SDS011;45321;53.200;5.814;2023-03-14T00:47:12;25.05;;;4.43;;
59504;SDS011;45321;53.200;5.814;2023-03-14T00:49:37;19.83;;;3.95;;
59504;SDS011;45321;53.200;5.814;2023-03-14T00:52:03;28.80;;;4.90;;
59504;SDS011;45321;53.200;5.814;2023-03-14T00:54:29;20.05;;;3.70;;
59504;SDS011;45321;53.200;5.814;2023-03-14T00:56:56;23.80;;;4.88;;
59504;SDS011;45321;53.200;5.814;2023-03-14T00:59:21;21.73;;;3.92;;
59504;SDS011;45321;53.200;5.814;2023-03-14T01:01:47;20.98;;;4.30;;
59504;SDS011;45321;53.200;5.814;2023-03-14T01:04:13;25.65;;;4.65;;
59504;SDS011;45321;53.200;5.814;2023-03-14T01:06:39;20.90;;;3.70;;
59504;SDS011;45321;53.200;5.814;2023-03-14T01:09:05;20.13;;;3.60;;
59504;SDS011;45321;53.200;5.814;2023-03-14T01:11:31;24.13;;;5.18;;
59504;SDS011;45321;53.200;5.814;2023-03-14T01:13:59;27.45;;;4.50;;
59504;SDS011;45321;53.200;5.814;2023-03-14T01:16:26;23.27;;;4.15;;
59504;SDS011;45321;53.200;5.814;2023-03-14T01:18:53;25.55;;;3.90;;
59504;SDS011;45321;53.200;5.814;2023-03-14T01:21:21;25.55;;;5.88;;
59504;SDS011;45321;53.200;5.814;2023-03-14T01:23:49;26.92;;;5.03;;
59504;SDS011;45321;53.200;5.814;2023-03-14T01:26:16;24.13;;;4.18;;
59504;SDS011;45321;53.200;5.814;2023-03-14T01:28:44;27.10;;;4.38;;
59504;SDS011;45321;53.200;5.814;2023-03-14T01:31:11;15.68;;;4.03;;
59504;SDS011;45321;53.200;5.814;2023-03-14T01:33:37;24.77;;;4.07;;
59504;SDS011;45321;53.200;5.814;2023-03-14T01:36:04;22.40;;;4.15;;
59504;SDS011;45321;53.200;5.814;2023-03-14T01:38:31;21.73;;;4.43;;
59504;SDS011;45321;53.200;5.814;2023-03-14T01:40:58;20.80;;;4.97;;
59504;SDS011;45321;53.200;5.814;2023-03-14T01:43:24;19.90;;;4.10;;
59504;SDS011;45321;53.200;5.814;2023-03-14T01:46:12;27.23;;;4.35;;
59504;SDS011;45321;53.200;5.814;2023-03-14T01:48:48;25.00;;;4.88;;
59504;SDS011;45321;53.200;5.814;2023-03-14T01:51:27;32.90;;;4.68;;
59504;SDS011;45321;53.200;5.814;2023-03-14T01:53:54;25.25;;;3.97;;
59504;SDS011;45321;53.200;5.814;2023-03-14T01:56:30;30.98;;;5.72;;
59504;SDS011;45321;53.200;5.814;2023-03-14T01:58:57;26.70;;;4.97;;
59504;SDS011;45321;53.200;5.814;2023-03-14T02:01:25;21.92;;;4.65;;
59504;SDS011;45321;53.200;5.814;2023-03-14T02:03:53;23.63;;;4.38;;
59504;SDS011;45321;53.200;5.814;2023-03-14T02:06:21;31.80;;;5.32;;
59504;SDS011;45321;53.200;5.814;2023-03-14T02:08:51;28.77;;;4.80;;
59504;SDS011;45321;53.200;5.814;2023-03-14T02:11:17;26.40;;;4.07;;
59504;SDS011;45321;53.200;5.814;2023-03-14T02:13:44;25.65;;;3.92;;
59504;SDS011;45321;53.200;5.814;2023-03-14T02:16:10;29.88;;;4.03;;
59504;SDS011;45321;53.200;5.814;2023-03-14T02:18:37;21.83;;;4.20;;
59504;SDS011;45321;53.200;5.814;2023-03-14T02:21:08;18.85;;;3.67;;
59504;SDS011;45321;53.200;5.814;2023-03-14T02:24:16;21.45;;;4.20;;
59504;SDS011;45321;53.200;5.814;2023-03-14T02:29:41;19.92;;;3.95;;
59504;SDS011;45321;53.200;5.814;2023-03-14T02:32:16;28.42;;;4.30;;
59504;SDS011;45321;53.200;5.814;2023-03-14T02:34:42;28.75;;;5.32;;
59504;SDS011;45321;53.200;5.814;2023-03-14T02:37:13;29.88;;;3.97;;
59504;SDS011;45321;53.200;5.814;2023-03-14T02:39:43;25.90;;;4.03;;
59504;SDS011;45321;53.200;5.814;2023-03-14T02:42:11;27.17;;;3.95;;
59504;SDS011;45321;53.200;5.814;2023-03-14T02:44:48;24.35;;;4.75;;
59504;SDS011;45321;53.200;5.814;2023-03-14T02:47:16;21.80;;;3.65;;
59504;SDS011;45321;53.200;5.814;2023-03-14T02:49:43;23.17;;;4.30;;
59504;SDS011;45321;53.200;5.814;2023-03-14T02:52:09;29.60;;;5.13;;
59504;SDS011;45321;53.200;5.814;2023-03-14T02:54:35;24.75;;;3.65;;
59504;SDS011;45321;53.200;5.814;2023-03-14T02:57:02;24.30;;;4.32;;
59504;SDS011;45321;53.200;5.814;2023-03-14T02:59:28;25.77;;;4.50;;
59504;SDS011;45321;53.200;5.814;2023-03-14T03:01:53;25.63;;;3.90;;
59504;SDS011;45321;53.200;5.814;2023-03-14T03:04:19;36.65;;;6.00;;
59504;SDS011;45321;53.200;5.814;2023-03-14T03:06:45;31.17;;;5.25;;
59504;SDS011;45321;53.200;5.814;2023-03-14T03:09:11;27.60;;;4.72;;
59504;SDS011;45321;53.200;5.814;2023-03-14T03:11:36;27.00;;;4.78;;
59504;SDS011;45321;53.200;5.814;2023-03-14T03:14:02;37.13;;;5.50;;
59504;SDS011;45321;53.200;5.814;2023-03-14T03:16:27;38.78;;;5.63;;
59504;SDS011;45321;53.200;5.814;2023-03-14T03:18:53;32.08;;;4.93;;
59504;SDS011;45321;53.200;5.814;2023-03-14T03:21:19;32.95;;;5.10;;
59504;SDS011;45321;53.200;5.814;2023-03-14T03:23:48;37.90;;;5.18;;
59504;SDS011;45321;53.200;5.814;2023-03-14T03:26:14;36.90;;;5.55;;
59504;SDS011;45321;53.200;5.814;2023-03-14T03:28:40;28.33;;;4.90;;
59504;SDS011;45321;53.200;5.814;2023-03-14T03:31:06;36.58;;;5.95;;
59504;SDS011;45321;53.200;5.814;2023-03-14T03:33:33;32.53;;;5.20;;
59504;SDS011;45321;53.200;5.814;2023-03-14T03:35:59;29.83;;;5.50;;
59504;SDS011;45321;53.200;5.814;2023-03-14T03:38:24;36.10;;;5.63;;
59504;SDS011;45321;53.200;5.814;2023-03-14T03:40:50;32.13;;;5.75;;
59504;SDS011;45321;53.200;5.814;2023-03-14T03:43:16;46.65;;;5.97;;
59504;SDS011;45321;53.200;5.814;2023-03-14T03:45:43;30.92;;;5.55;;
59504;SDS011;45321;53.200;5.814;2023-03-14T03:48:08;29.95;;;5.28;;
59504;SDS011;45321;53.200;5.814;2023-03-14T03:50:34;36.33;;;6.22;;
59504;SDS011;45321;53.200;5.814;2023-03-14T03:53:08;37.42;;;5.35;;
59504;SDS011;45321;53.200;5.814;2023-03-14T03:55:34;36.72;;;5.95;;
59504;SDS011;45321;53.200;5.814;2023-03-14T03:57:59;33.95;;;5.75;;
59504;SDS011;45321;53.200;5.814;2023-03-14T04:00:25;33.15;;;6.70;;
59504;SDS011;45321;53.200;5.814;2023-03-14T04:02:51;39.78;;;5.07;;
59504;SDS011;45321;53.200;5.814;2023-03-14T04:05:16;36.20;;;6.07;;
59504;SDS011;45321;53.200;5.814;2023-03-14T04:07:42;30.02;;;4.97;;
59504;SDS011;45321;53.200;5.814;2023-03-14T04:10:08;35.10;;;5.88;;
59504;SDS011;45321;53.200;5.814;2023-03-14T04:12:34;41.05;;;5.93;;
59504;SDS011;45321;53.200;5.814;2023-03-14T04:15:00;42.22;;;6.45;;
59504;SDS011;45321;53.200;5.814;2023-03-14T04:17:25;34.85;;;6.13;;
59504;SDS011;45321;53.200;5.814;2023-03-14T04:19:51;36.05;;;5.95;;
59504;SDS011;45321;53.200;5.814;2023-03-14T04:22:19;40.42;;;6.10;;
59504;SDS011;45321;53.200;5.814;2023-03-14T04:24:45;37.05;;;5.78;;
59504;SDS011;45321;53.200;5.814;2023-03-14T04:27:10;40.17;;;5.13;;
59504;SDS011;45321;53.200;5.814;2023-03-14T04:29:36;54.15;;;7.45;;
59504;SDS011;45321;53.200;5.814;2023-03-14T04:32:02;58.28;;;7.40;;
59504;SDS011;45321;53.200;5.814;2023-03-14T04:34:28;43.45;;;5.70;;
59504;SDS011;45321;53.200;5.814;2023-03-14T04:36:53;47.47;;;6.07;;
59504;SDS011;45321;53.200;5.814;2023-03-14T04:39:19;52.83;;;6.28;;
59504;SDS011;45321;53.200;5.814;2023-03-14T04:41:45;50.90;;;6.35;;
59504;SDS011;45321;53.200;5.814;2023-03-14T04:44:11;42.58;;;6.18;;
59504;SDS011;45321;53.200;5.814;2023-03-14T04:46:36;43.53;;;6.85;;
59504;SDS011;45321;53.200;5.814;2023-03-14T04:49:02;44.45;;;6.18;;
59504;SDS011;45321;53.200;5.814;2023-03-14T04:51:28;35.35;;;6.40;;
59504;SDS011;45321;53.200;5.814;2023-03-14T04:53:53;44.05;;;6.75;;
59504;SDS011;45321;53.200;5.814;2023-03-14T04:56:20;31.00;;;6.85;;
59504;SDS011;45321;53.200;5.814;2023-03-14T04:58:46;40.63;;;6.70;;
59504;SDS011;45321;53.200;5.814;2023-03-14T05:01:12;29.67;;;6.38;;
59504;SDS011;45321;53.200;5.814;2023-03-14T05:03:38;37.17;;;6.82;;
59504;SDS011;45321;53.200;5.814;2023-03-14T05:06:04;41.60;;;6.38;;
59504;SDS011;45321;53.200;5.814;2023-03-14T05:08:30;32.03;;;7.35;;
59504;SDS011;45321;53.200;5.814;2023-03-14T05:10:56;36.88;;;7.32;;
59504;SDS011;45321;53.200;5.814;2023-03-14T05:13:23;32.08;;;6.78;;
59504;SDS011;45321;53.200;5.814;2023-03-14T05:15:48;37.00;;;6.85;;
59504;SDS011;45321;53.200;5.814;2023-03-14T05:18:15;35.67;;;6.75;;
59504;SDS011;45321;53.200;5.814;2023-03-14T05:20:41;36.90;;;7.22;;
59504;SDS011;45321;53.200;5.814;2023-03-14T05:23:10;28.38;;;6.68;;
59504;SDS011;45321;53.200;5.814;2023-03-14T05:25:36;33.20;;;7.25;;
59504;SDS011;45321;53.200;5.814;2023-03-14T05:28:02;26.27;;;6.18;;
59504;SDS011;45321;53.200;5.814;2023-03-14T05:30:27;30.95;;;7.63;;
59504;SDS011;45321;53.200;5.814;2023-03-14T05:32:53;29.75;;;7.18;;
59504;SDS011;45321;53.200;5.814;2023-03-14T05:35:19;37.70;;;8.75;;
59504;SDS011;45321;53.200;5.814;2023-03-14T05:37:45;31.70;;;8.32;;
59504;SDS011;45321;53.200;5.814;2023-03-14T05:40:12;44.63;;;9.27;;
59504;SDS011;45321;53.200;5.814;2023-03-14T05:42:38;42.13;;;8.15;;
59504;SDS011;45321;53.200;5.814;2023-03-14T05:45:04;31.63;;;7.57;;
59504;SDS011;45321;53.200;5.814;2023-03-14T05:47:30;29.50;;;6.03;;
59504;SDS011;45321;53.200;5.814;2023-03-14T05:49:55;25.88;;;4.97;;
59504;SDS011;45321;53.200;5.814;2023-03-14T05:52:21;27.10;;;3.25;;
59504;SDS011;45321;53.200;5.814;2023-03-14T05:54:47;34.30;;;3.92;;
59504;SDS011;45321;53.200;5.814;2023-03-14T05:57:13;27.80;;;2.42;;
59504;SDS011;45321;53.200;5.814;2023-03-14T05:59:38;41.95;;;2.80;;
59504;SDS011;45321;53.200;5.814;2023-03-14T06:02:04;42.33;;;3.28;;
59504;SDS011;45321;53.200;5.814;2023-03-14T06:04:30;35.20;;;2.75;;
59504;SDS011;45321;53.200;5.814;2023-03-14T06:06:55;32.25;;;2.47;;
59504;SDS011;45321;53.200;5.814;2023-03-14T06:09:21;30.40;;;2.22;;
59504;SDS011;45321;53.200;5.814;2023-03-14T06:11:48;41.90;;;2.60;;
59504;SDS011;45321;53.200;5.814;2023-03-14T06:14:14;28.15;;;2.10;;
59504;SDS011;45321;53.200;5.814;2023-03-14T06:16:40;24.85;;;2.45;;
59504;SDS011;45321;53.200;5.814;2023-03-14T06:19:05;23.15;;;2.20;;
59504;SDS011;45321;53.200;5.814;2023-03-14T06:21:31;31.05;;;2.70;;
59504;SDS011;45321;53.200;5.814;2023-03-14T06:23:57;22.70;;;1.73;;
59504;SDS011;45321;53.200;5.814;2023-03-14T06:26:22;24.27;;;1.90;;
59504;SDS011;45321;53.200;5.814;2023-03-14T06:28:48;21.20;;;1.80;;
59504;SDS011;45321;53.200;5.814;2023-03-14T06:31:15;23.83;;;1.55;;
59504;SDS011;45321;53.200;5.814;2023-03-14T06:33:42;16.67;;;1.30;;
59504;SDS011;45321;53.200;5.814;2023-03-14T06:36:08;18.25;;;1.63;;
59504;SDS011;45321;53.200;5.814;2023-03-14T06:38:33;16.42;;;1.42;;
59504;SDS011;45321;53.200;5.814;2023-03-14T06:41:03;12.68;;;1.15;;
59504;SDS011;45321;53.200;5.814;2023-03-14T06:43:30;19.98;;;1.48;;
59504;SDS011;45321;53.200;5.814;2023-03-14T06:45:55;9.80;;;1.42;;
59504;SDS011;45321;53.200;5.814;2023-03-14T06:48:21;9.20;;;0.98;;
59504;SDS011;45321;53.200;5.814;2023-03-14T06:50:50;10.90;;;1.05;;
59504;SDS011;45321;53.200;5.814;2023-03-14T06:53:15;9.07;;;1.92;;
59504;SDS011;45321;53.200;5.814;2023-03-14T06:55:41;11.20;;;1.42;;
59504;SDS011;45321;53.200;5.814;2023-03-14T06:58:08;15.57;;;1.23;;
59504;SDS011;45321;53.200;5.814;2023-03-14T07:00:34;15.75;;;1.33;;
59504;SDS011;45321;53.200;5.814;2023-03-14T07:03:00;13.77;;;1.52;;
59504;SDS011;45321;53.200;5.814;2023-03-14T07:05:26;10.98;;;2.15;;
59504;SDS011;45321;53.200;5.814;2023-03-14T07:07:52;12.90;;;1.38;;
59504;SDS011;45321;53.200;5.814;2023-03-14T07:10:17;7.47;;;1.20;;
59504;SDS011;45321;53.200;5.814;2023-03-14T07:12:43;14.85;;;1.10;;
59504;SDS011;45321;53.200;5.814;2023-03-14T07:15:09;13.02;;;1.50;;
59504;SDS011;45321;53.200;5.814;2023-03-14T07:17:35;18.60;;;1.40;;
59504;SDS011;45321;53.200;5.814;2023-03-14T07:20:01;20.90;;;1.40;;
59504;SDS011;45321;53.200;5.814;2023-03-14T07:22:29;12.73;;;1.40;;
59504;SDS011;45321;53.200;5.814;2023-03-14T07:24:54;13.20;;;2.17;;
59504;SDS011;45321;53.200;5.814;2023-03-14T07:27:20;18.98;;;1.73;;
59504;SDS011;45321;53.200;5.814;2023-03-14T07:29:46;16.40;;;1.65;;
59504;SDS011;45321;53.200;5.814;2023-03-14T07:32:11;15.18;;;1.83;;
59504;SDS011;45321;53.200;5.814;2023-03-14T07:34:40;18.23;;;2.05;;
59504;SDS011;45321;53.200;5.814;2023-03-14T07:37:06;15.45;;;1.50;;
59504;SDS011;45321;53.200;5.814;2023-03-14T07:39:32;16.00;;;1.92;;
59504;SDS011;45321;53.200;5.814;2023-03-14T07:41:58;17.95;;;1.90;;
59504;SDS011;45321;53.200;5.814;2023-03-14T07:44:24;28.25;;;3.83;;
59504;SDS011;45321;53.200;5.814;2023-03-14T07:46:50;18.27;;;2.38;;
59504;SDS011;45321;53.200;5.814;2023-03-14T07:49:16;18.38;;;2.35;;
59504;SDS011;45321;53.200;5.814;2023-03-14T07:51:41;20.40;;;2.28;;
59504;SDS011;45321;53.200;5.814;2023-03-14T07:54:09;22.20;;;2.75;;
59504;SDS011;45321;53.200;5.814;2023-03-14T07:56:35;18.52;;;2.70;;
59504;SDS011;45321;53.200;5.814;2023-03-14T07:59:01;18.85;;;2.10;;
59504;SDS011;45321;53.200;5.814;2023-03-14T08:01:26;16.52;;;1.95;;
59504;SDS011;45321;53.200;5.814;2023-03-14T08:03:52;20.60;;;2.45;;
59504;SDS011;45321;53.200;5.814;2023-03-14T08:06:18;21.30;;;2.25;;
59504;SDS011;45321;53.200;5.814;2023-03-14T08:08:44;21.73;;;2.17;;
59504;SDS011;45321;53.200;5.814;2023-03-14T08:11:09;28.58;;;2.95;;
59504;SDS011;45321;53.200;5.814;2023-03-14T08:13:36;30.60;;;2.85;;
59504;SDS011;45321;53.200;5.814;2023-03-14T08:16:03;18.08;;;2.22;;
59504;SDS011;45321;53.200;5.814;2023-03-14T08:18:29;21.55;;;3.45;;
59504;SDS011;45321;53.200;5.814;2023-03-14T08:20:55;19.20;;;2.70;;
59504;SDS011;45321;53.200;5.814;2023-03-14T08:23:21;24.45;;;2.72;;
59504;SDS011;45321;53.200;5.814;2023-03-14T08:25:50;23.90;;;3.28;;
59504;SDS011;45321;53.200;5.814;2023-03-14T08:28:17;32.88;;;3.53;;
59504;SDS011;45321;53.200;5.814;2023-03-14T08:30:43;19.17;;;2.70;;
59504;SDS011;45321;53.200;5.814;2023-03-14T08:33:09;27.10;;;3.30;;
59504;SDS011;45321;53.200;5.814;2023-03-14T08:35:35;20.98;;;2.65;;
59504;SDS011;45321;53.200;5.814;2023-03-14T08:38:02;23.73;;;3.28;;
59504;SDS011;45321;53.200;5.814;2023-03-14T08:40:28;25.10;;;3.03;;
59504;SDS011;45321;53.200;5.814;2023-03-14T08:42:54;24.38;;;2.90;;
59504;SDS011;45321;53.200;5.814;2023-03-14T08:45:20;28.88;;;3.83;;
59504;SDS011;45321;53.200;5.814;2023-03-14T08:47:46;25.13;;;3.38;;
59504;SDS011;45321;53.200;5.814;2023-03-14T08:50:12;33.63;;;3.50;;
59504;SDS011;45321;53.200;5.814;2023-03-14T08:52:38;23.30;;;3.35;;
59504;SDS011;45321;53.200;5.814;2023-03-14T08:55:07;23.45;;;3.53;;
59504;SDS011;45321;53.200;5.814;2023-03-14T08:57:34;27.27;;;3.83;;
59504;SDS011;45321;53.200;5.814;2023-03-14T09:00:00;21.45;;;3.33;;
59504;SDS011;45321;53.200;5.814;2023-03-14T09:02:25;25.17;;;4.65;;
59504;SDS011;45321;53.200;5.814;2023-03-14T09:04:52;16.75;;;2.65;;
59504;SDS011;45321;53.200;5.814;2023-03-14T09:07:18;18.67;;;2.55;;
59504;SDS011;45321;53.200;5.814;2023-03-14T09:09:44;20.60;;;3.00;;
59504;SDS011;45321;53.200;5.814;2023-03-14T09:12:10;19.05;;;3.60;;
59504;SDS011;45321;53.200;5.814;2023-03-14T09:14:36;25.98;;;3.85;;
59504;SDS011;45321;53.200;5.814;2023-03-14T09:17:03;22.48;;;3.00;;
59504;SDS011;45321;53.200;5.814;2023-03-14T09:19:29;25.52;;;3.92;;
59504;SDS011;45321;53.200;5.814;2023-03-14T09:21:55;23.23;;;4.00;;
59504;SDS011;45321;53.200;5.814;2023-03-14T09:24:20;27.83;;;4.10;;
59504;SDS011;45321;53.200;5.814;2023-03-14T09:26:46;33.58;;;4.32;;
59504;SDS011;45321;53.200;5.814;2023-03-14T09:29:12;20.95;;;3.28;;
59504;SDS011;45321;53.200;5.814;2023-03-14T09:31:38;22.80;;;3.75;;
59504;SDS011;45321;53.200;5.814;2023-03-14T09:34:04;22.77;;;3.53;;
59504;SDS011;45321;53.200;5.814;2023-03-14T09:36:29;28.67;;;3.75;;
59504;SDS011;45321;53.200;5.814;2023-03-14T09:38:55;27.48;;;3.47;;
59504;SDS011;45321;53.200;5.814;2023-03-14T09:41:23;25.17;;;3.05;;
59504;SDS011;45321;53.200;5.814;2023-03-14T09:44:14;23.83;;;3.50;;
59504;SDS011;45321;53.200;5.814;2023-03-14T09:46:45;19.63;;;3.28;;
59504;SDS011;45321;53.200;5.814;2023-03-14T09:49:22;23.95;;;3.22;;
59504;SDS011;45321;53.200;5.814;2023-03-14T09:51:53;18.83;;;2.97;;
59504;SDS011;45321;53.200;5.814;2023-03-14T09:54:25;27.77;;;3.85;;
59504;SDS011;45321;53.200;5.814;2023-03-14T09:56:55;14.82;;;2.88;;
59504;SDS011;45321;53.200;5.814;2023-03-14T09:59:21;17.40;;;3.00;;
59504;SDS011;45321;53.200;5.814;2023-03-14T10:01:49;19.27;;;3.05;;
59504;SDS011;45321;53.200;5.814;2023-03-14T10:04:17;31.38;;;4.45;;
59504;SDS011;45321;53.200;5.814;2023-03-14T10:06:48;20.55;;;3.05;;
59504;SDS011;45321;53.200;5.814;2023-03-14T10:09:23;16.27;;;2.28;;
59504;SDS011;45321;53.200;5.814;2023-03-14T10:11:53;16.33;;;3.15;;
59504;SDS011;45321;53.200;5.814;2023-03-14T10:14:29;17.50;;;2.40;;
59504;SDS011;45321;53.200;5.814;2023-03-14T10:17:04;15.73;;;2.33;;
59504;SDS011;45321;53.200;5.814;2023-03-14T10:19:31;17.85;;;2.88;;
59504;SDS011;45321;53.200;5.814;2023-03-14T10:21:57;12.23;;;2.30;;
59504;SDS011;45321;53.200;5.814;2023-03-14T10:24:31;12.73;;;2.17;;
59504;SDS011;45321;53.200;5.814;2023-03-14T10:27:00;11.95;;;2.25;;
59504;SDS011;45321;53.200;5.814;2023-03-14T10:29:31;16.13;;;2.60;;
59504;SDS011;45321;53.200;5.814;2023-03-14T10:32:03;11.68;;;2.80;;
59504;SDS011;45321;53.200;5.814;2023-03-14T10:34:32;10.30;;;2.03;;
59504;SDS011;45321;53.200;5.814;2023-03-14T10:37:07;9.38;;;1.70;;
59504;SDS011;45321;53.200;5.814;2023-03-14T10:39:47;13.73;;;2.63;;
59504;SDS011;45321;53.200;5.814;2023-03-14T10:42:19;12.70;;;2.55;;
59504;SDS011;45321;53.200;5.814;2023-03-14T10:44:47;12.90;;;2.72;;
59504;SDS011;45321;53.200;5.814;2023-03-14T10:47:19;12.60;;;2.05;;
59504;SDS011;45321;53.200;5.814;2023-03-14T10:49:47;7.55;;;1.50;;
59504;SDS011;45321;53.200;5.814;2023-03-14T10:54:59;8.10;;;1.52;;
59504;SDS011;45321;53.200;5.814;2023-03-14T10:57:27;6.45;;;1.25;;
59504;SDS011;45321;53.200;5.814;2023-03-14T10:59:53;11.60;;;1.75;;
59504;SDS011;45321;53.200;5.814;2023-03-14T11:05:31;10.27;;;1.48;;
59504;SDS011;45321;53.200;5.814;2023-03-14T11:11:15;7.03;;;1.95;;
59504;SDS011;45321;53.200;5.814;2023-03-14T11:21:29;9.25;;;1.45;;
59504;SDS011;45321;53.200;5.814;2023-03-14T11:29:12;8.50;;;1.85;;
59504;SDS011;45321;53.200;5.814;2023-03-14T11:31:43;10.50;;;1.70;;
59504;SDS011;45321;53.200;5.814;2023-03-14T11:34:15;10.25;;;1.27;;
59504;SDS011;45321;53.200;5.814;2023-03-14T11:36:58;9.82;;;1.35;;
59504;SDS011;45321;53.200;5.814;2023-03-14T11:39:26;15.32;;;2.47;;
59504;SDS011;45321;53.200;5.814;2023-03-14T11:41:59;10.52;;;2.50;;
59504;SDS011;45321;53.200;5.814;2023-03-14T11:44:27;13.77;;;1.75;;
59504;SDS011;45321;53.200;5.814;2023-03-14T11:47:00;11.95;;;1.80;;
59504;SDS011;45321;53.200;5.814;2023-03-14T11:49:51;10.45;;;2.05;;
59504;SDS011;45321;53.200;5.814;2023-03-14T11:52:23;9.82;;;1.92;;
59504;SDS011;45321;53.200;5.814;2023-03-14T11:57:27;12.50;;;2.38;;
59504;SDS011;45321;53.200;5.814;2023-03-14T12:13:09;9.43;;;1.27;;
59504;SDS011;45321;53.200;5.814;2023-03-14T12:15:40;9.77;;;1.85;;
59504;SDS011;45321;53.200;5.814;2023-03-14T12:18:21;9.47;;;1.63;;
59504;SDS011;45321;53.200;5.814;2023-03-14T12:20:57;10.73;;;1.80;;
59504;SDS011;45321;53.200;5.814;2023-03-14T12:23:25;6.72;;;1.27;;
59504;SDS011;45321;53.200;5.814;2023-03-14T12:26:13;5.40;;;1.13;;
59504;SDS011;45321;53.200;5.814;2023-03-14T12:28:43;7.15;;;1.30;;
59504;SDS011;45321;53.200;5.814;2023-03-14T12:34:01;6.85;;;1.20;;
59504;SDS011;45321;53.200;5.814;2023-03-14T12:39:19;6.93;;;1.65;;
59504;SDS011;45321;53.200;5.814;2023-03-14T12:42:01;7.88;;;1.60;;
59504;SDS011;45321;53.200;5.814;2023-03-14T12:44:41;8.63;;;1.27;;
59504;SDS011;45321;53.200;5.814;2023-03-14T12:49:44;8.68;;;1.35;;
59504;SDS011;45321;53.200;5.814;2023-03-14T12:54:55;7.43;;;1.35;;
59504;SDS011;45321;53.200;5.814;2023-03-14T12:57:54;8.40;;;1.40;;
59504;SDS011;45321;53.200;5.814;2023-03-14T13:00:40;8.52;;;1.30;;
59504;SDS011;45321;53.200;5.814;2023-03-14T13:03:17;6.40;;;1.30;;
59504;SDS011;45321;53.200;5.814;2023-03-14T13:05:59;10.30;;;1.45;;
59504;SDS011;45321;53.200;5.814;2023-03-14T13:08:34;6.90;;;1.60;;
59504;SDS011;45321;53.200;5.814;2023-03-14T13:11:09;11.02;;;1.60;;
59504;SDS011;45321;53.200;5.814;2023-03-14T13:13:41;9.75;;;2.42;;
59504;SDS011;45321;53.200;5.814;2023-03-14T13:16:12;9.43;;;1.67;;
59504;SDS011;45321;53.200;5.814;2023-03-14T13:18:45;8.60;;;1.52;;
59504;SDS011;45321;53.200;5.814;2023-03-14T13:21:17;12.18;;;2.13;;
59504;SDS011;45321;53.200;5.814;2023-03-14T13:24:01;12.10;;;2.20;;
59504;SDS011;45321;53.200;5.814;2023-03-14T13:26:39;9.15;;;1.42;;
59504;SDS011;45321;53.200;5.814;2023-03-14T13:29:18;9.23;;;1.90;;
59504;SDS011;45321;53.200;5.814;2023-03-14T13:31:48;9.40;;;1.63;;
59504;SDS011;45321;53.200;5.814;2023-03-14T13:34:16;8.05;;;1.55;;
59504;SDS011;45321;53.200;5.814;2023-03-14T13:36:42;17.92;;;2.20;;
59504;SDS011;45321;53.200;5.814;2023-03-14T13:39:16;8.60;;;1.90;;
59504;SDS011;45321;53.200;5.814;2023-03-14T13:41:43;8.65;;;1.75;;
59504;SDS011;45321;53.200;5.814;2023-03-14T13:44:15;7.20;;;1.65;;
59504;SDS011;45321;53.200;5.814;2023-03-14T13:46:44;9.88;;;2.15;;
59504;SDS011;45321;53.200;5.814;2023-03-14T13:49:11;7.45;;;1.05;;
59504;SDS011;45321;53.200;5.814;2023-03-14T13:51:44;8.15;;;1.77;;
59504;SDS011;45321;53.200;5.814;2023-03-14T13:54:16;12.13;;;1.63;;
59504;SDS011;45321;53.200;5.814;2023-03-14T13:56:44;7.13;;;1.40;;
59504;SDS011;45321;53.200;5.814;2023-03-14T13:59:26;5.82;;;1.05;;
59504;SDS011;45321;53.200;5.814;2023-03-14T14:01:54;5.75;;;1.20;;
59504;SDS011;45321;53.200;5.814;2023-03-14T14:04:22;9.32;;;1.42;;
59504;SDS011;45321;53.200;5.814;2023-03-14T14:06:57;7.22;;;1.80;;
59504;SDS011;45321;53.200;5.814;2023-03-14T14:11:56;8.80;;;1.75;;
59504;SDS011;45321;53.200;5.814;2023-03-14T14:14:33;7.97;;;1.30;;
59504;SDS011;45321;53.200;5.814;2023-03-14T14:17:07;6.30;;;1.42;;
59504;SDS011;45321;53.200;5.814;2023-03-14T14:19:36;9.65;;;1.70;;
59504;SDS011;45321;53.200;5.814;2023-03-14T14:22:03;6.35;;;1.45;;
59504;SDS011;45321;53.200;5.814;2023-03-14T14:24:32;7.35;;;1.65;;
59504;SDS011;45321;53.200;5.814;2023-03-14T14:30:06;8.77;;;1.42;;
59504;SDS011;45321;53.200;5.814;2023-03-14T14:32:41;10.55;;;2.22;;
59504;SDS011;45321;53.200;5.814;2023-03-14T14:35:08;8.32;;;1.88;;
59504;SDS011;45321;53.200;5.814;2023-03-14T14:37:46;12.40;;;1.85;;
59504;SDS011;45321;53.200;5.814;2023-03-14T14:40:48;8.77;;;1.60;;
59504;SDS011;45321;53.200;5.814;2023-03-14T14:43:10;8.45;;;1.65;;
59504;SDS011;45321;53.200;5.814;2023-03-14T14:45:43;9.93;;;1.73;;
59504;SDS011;45321;53.200;5.814;2023-03-14T14:48:10;8.43;;;1.50;;
59504;SDS011;45321;53.200;5.814;2023-03-14T14:53:21;7.38;;;1.55;;
59504;SDS011;45321;53.200;5.814;2023-03-14T14:55:53;6.93;;;1.55;;
59504;SDS011;45321;53.200;5.814;2023-03-14T14:58:25;7.63;;;1.63;;
59504;SDS011;45321;53.200;5.814;2023-03-14T15:03:28;10.02;;;1.77;;
59504;SDS011;45321;53.200;5.814;2023-03-14T15:05:56;8.75;;;1.90;;
59504;SDS011;45321;53.200;5.814;2023-03-14T15:08:22;10.02;;;2.05;;
59504;SDS011;45321;53.200;5.814;2023-03-14T15:10:50;9.40;;;2.00;;
59504;SDS011;45321;53.200;5.814;2023-03-14T15:13:15;9.88;;;1.90;;
59504;SDS011;45321;53.200;5.814;2023-03-14T15:15:41;6.97;;;1.60;;
59504;SDS011;45321;53.200;5.814;2023-03-14T15:18:11;6.00;;;1.67;;
59504;SDS011;45321;53.200;5.814;2023-03-14T15:20:43;13.82;;;2.05;;
59504;SDS011;45321;53.200;5.814;2023-03-14T15:23:13;15.05;;;2.28;;
59504;SDS011;45321;53.200;5.814;2023-03-14T15:25:40;11.93;;;1.83;;
59504;SDS011;45321;53.200;5.814;2023-03-14T15:28:12;7.85;;;2.03;;
59504;SDS011;45321;53.200;5.814;2023-03-14T15:30:45;6.03;;;1.67;;
59504;SDS011;45321;53.200;5.814;2023-03-14T15:33:27;12.30;;;2.17;;
59504;SDS011;45321;53.200;5.814;2023-03-14T15:35:54;12.18;;;2.63;;
59504;SDS011;45321;53.200;5.814;2023-03-14T15:38:20;11.07;;;2.67;;
59504;SDS011;45321;53.200;5.814;2023-03-14T15:40:48;15.02;;;3.28;;
59504;SDS011;45321;53.200;5.814;2023-03-14T15:43:14;10.93;;;2.10;;
59504;SDS011;45321;53.200;5.814;2023-03-14T15:45:40;13.27;;;2.17;;
59504;SDS011;45321;53.200;5.814;2023-03-14T15:48:08;9.95;;;2.03;;